Time;durP1;ratioP1;P1;durP2;ratioP2;P2;SDS_P1;SDS_P2;PMS_P1;PMS_P2;Temp;Humidity;BMP_temperature;BMP_pressure;BME280_temperature;BME280_humidity;BME280_pressure;Samples;Min_cycle;Max_cycle;Signal;HPM_P1;HPM_P2
2023/04/01 00:01:44;;;;;;;1.55;0.70;;;;;;;;;;5079744;28;20038;-76
2023/04/01 00:04:10;;;;;;;2.40;0.80;;;;;;;;;;5114990;28;20140;-77
2023/04/01 00:06:35;;;;;;;1.35;0.77;;;;;;;;;;5115097;28;20027;-77
2023/04/01 00:09:00;;;;;;;0.80;0.80;;;;;;;;;;5079518;28;20028;-77
2023/04/01 00:11:27;;;;;;;0.80;0.80;;;;;;;;;;5096550;28;20062;-76
2023/04/01 00:13:53;;;;;;;1.08;0.93;;;;;;;;;;5114583;28;20028;-77
2023/04/01 00:16:18;;;;;;;2.15;0.90;;;;;;;;;;5114507;28;20522;-77
2023/04/01 00:18:43;;;;;;;1.02;0.93;;;;;;;;;;5114442;28;20497;-77
2023/04/01 00:21:09;;;;;;;2.63;0.90;;;;;;;;;;5114662;28;20055;-77
2023/04/01 00:23:35;;;;;;;2.28;1.00;;;;;;;;;;5096265;28;20088;-77
2023/04/01 00:26:02;;;;;;;2.42;0.88;;;;;;;;;;5096324;28;20387;-78
2023/04/01 00:28:28;;;;;;;1.15;1.05;;;;;;;;;;5114025;28;20028;-75
2023/04/01 00:30:53;;;;;;;0.85;0.70;;;;;;;;;;5096000;28;20024;-77
2023/04/01 00:33:19;;;;;;;0.90;0.90;;;;;;;;;;5114296;28;20032;-77
2023/04/01 00:35:45;;;;;;;1.70;0.80;;;;;;;;;;5114251;28;20474;-77
2023/04/01 00:38:11;;;;;;;1.80;1.13;;;;;;;;;;5114469;28;20114;-75
2023/04/01 00:40:46;;;;;;;0.70;0.70;;;;;;;;;;5096449;28;20115;-76
2023/04/01 00:43:19;;;;;;;1.40;0.93;;;;;;;;;;5095869;28;20482;-77
2023/04/01 00:45:45;;;;;;;1.77;1.00;;;;;;;;;;5114360;28;20098;-77
2023/04/01 00:48:14;;;;;;;2.00;1.02;;;;;;;;;;5083103;28;20067;-77
2023/04/01 00:50:42;;;;;;;1.73;1.33;;;;;;;;;;5075473;28;20027;-77
2023/04/01 00:53:08;;;;;;;1.52;0.80;;;;;;;;;;5058861;28;20028;-77
2023/04/01 00:55:35;;;;;;;2.47;1.13;;;;;;;;;;5075346;28;20528;-77
2023/04/01 00:58:04;;;;;;;1.50;0.90;;;;;;;;;;5075760;28;20020;-77
2023/04/01 01:00:29;;;;;;;1.23;1.10;;;;;;;;;;5075414;28;20038;-77
2023/04/01 01:02:54;;;;;;;2.28;1.20;;;;;;;;;;5075478;28;20111;-76
2023/04/01 01:05:28;;;;;;;1.30;1.20;;;;;;;;;;5093295;28;20471;-77
2023/04/01 01:08:14;;;;;;;1.85;1.10;;;;;;;;;;5075411;28;20016;-76
2023/04/01 01:10:40;;;;;;;1.58;1.08;;;;;;;;;;5093394;28;20455;-77
2023/04/01 01:13:13;;;;;;;2.40;1.40;;;;;;;;;;5075397;28;20032;-77
2023/04/01 01:15:47;;;;;;;1.85;1.35;;;;;;;;;;5075447;28;20031;-77
2023/04/01 01:18:33;;;;;;;0.90;0.90;;;;;;;;;;5093263;28;20039;-77
2023/04/01 01:21:36;;;;;;;2.05;1.30;;;;;;;;;;5075130;28;20035;-77
2023/04/01 01:24:39;;;;;;;2.10;1.23;;;;;;;;;;5093133;28;20535;-75
2023/04/01 01:27:10;;;;;;;2.28;1.20;;;;;;;;;;5093414;28;20028;-77
2023/04/01 01:30:00;;;;;;;3.40;1.15;;;;;;;;;;5075191;28;20098;-77
2023/04/01 01:32:55;;;;;;;1.77;1.27;;;;;;;;;;5093204;28;20074;-77
2023/04/01 01:35:28;;;;;;;1.98;1.48;;;;;;;;;;5093014;28;20024;-77
2023/04/01 01:37:58;;;;;;;1.65;1.20;;;;;;;;;;5093169;28;20390;-77
2023/04/01 01:40:24;;;;;;;3.05;1.38;;;;;;;;;;5059035;28;20078;-77
2023/04/01 01:42:53;;;;;;;2.15;1.40;;;;;;;;;;5079410;28;20051;-77
2023/04/01 01:45:21;;;;;;;3.38;1.20;;;;;;;;;;5078895;28;20497;-77
2023/04/01 01:47:47;;;;;;;1.95;1.40;;;;;;;;;;5088077;28;20455;-77
2023/04/01 01:50:13;;;;;;;2.03;1.33;;;;;;;;;;5099355;28;20115;-77
2023/04/01 01:52:39;;;;;;;3.25;1.50;;;;;;;;;;5099627;28;20036;-77
2023/04/01 01:55:24;;;;;;;5.65;1.70;;;;;;;;;;5117325;28;20546;-76
2023/04/01 01:57:50;;;;;;;3.85;1.40;;;;;;;;;;5082184;28;20478;-77
2023/04/01 02:00:17;;;;;;;2.17;1.42;;;;;;;;;;5099005;28;20032;-76
2023/04/01 02:02:44;;;;;;;4.82;1.77;;;;;;;;;;5099020;28;20486;-77
2023/04/01 02:05:14;;;;;;;3.03;1.50;;;;;;;;;;5098938;28;20480;-76
2023/04/01 02:07:43;;;;;;;2.30;1.45;;;;;;;;;;5098901;28;20015;-76
2023/04/01 02:10:09;;;;;;;4.10;1.65;;;;;;;;;;5081909;28;20536;-77
2023/04/01 02:12:35;;;;;;;2.92;1.55;;;;;;;;;;5117523;28;20067;-77
2023/04/01 02:15:05;;;;;;;3.60;1.70;;;;;;;;;;5098587;28;20398;-77
2023/04/01 02:17:32;;;;;;;3.65;1.60;;;;;;;;;;5098706;28;20034;-77
2023/04/01 02:20:01;;;;;;;5.05;1.95;;;;;;;;;;5116891;28;20463;-77
2023/04/01 02:22:54;;;;;;;4.50;1.75;;;;;;;;;;5098794;28;20431;-77
2023/04/01 02:25:28;;;;;;;2.72;1.80;;;;;;;;;;5078736;28;20031;-77
2023/04/01 02:27:55;;;;;;;3.63;1.80;;;;;;;;;;5098633;28;20068;-77
2023/04/01 02:30:20;;;;;;;1.85;1.55;;;;;;;;;;5098469;28;20047;-77
2023/04/01 02:32:46;;;;;;;3.38;1.70;;;;;;;;;;5098705;28;20057;-77
2023/04/01 02:35:15;;;;;;;3.33;1.60;;;;;;;;;;5098351;28;20461;-77
2023/04/01 02:37:42;;;;;;;5.00;1.83;;;;;;;;;;5116627;28;20084;-77
2023/04/01 02:40:09;;;;;;;3.00;1.90;;;;;;;;;;5098305;28;20023;-77
2023/04/01 02:42:35;;;;;;;2.70;1.60;;;;;;;;;;5098839;28;20046;-77
2023/04/01 02:45:00;;;;;;;2.08;1.45;;;;;;;;;;5116632;28;20378;-77
2023/04/01 02:47:26;;;;;;;2.45;1.30;;;;;;;;;;5097970;28;20413;-77
2023/04/01 02:49:57;;;;;;;1.85;1.30;;;;;;;;;;5116080;28;20039;-77
2023/04/01 02:52:23;;;;;;;2.15;1.30;;;;;;;;;;5098705;28;20108;-77
2023/04/01 02:54:48;;;;;;;3.42;1.55;;;;;;;;;;5080881;28;20169;-77
2023/04/01 02:57:14;;;;;;;4.00;1.40;;;;;;;;;;5116422;28;20068;-77
2023/04/01 02:59:39;;;;;;;2.50;1.65;;;;;;;;;;5115711;28;20051;-77
2023/04/01 03:02:05;;;;;;;2.38;1.30;;;;;;;;;;5115959;28;20024;-77
2023/04/01 03:04:30;;;;;;;2.67;1.70;;;;;;;;;;5097653;28;20031;-77
2023/04/01 03:06:56;;;;;;;1.60;1.20;;;;;;;;;;5097731;28;20104;-76
2023/04/01 03:09:21;;;;;;;1.33;1.23;;;;;;;;;;5116069;28;20031;-77
2023/04/01 03:11:46;;;;;;;2.55;1.23;;;;;;;;;;5116225;28;20378;-77
2023/04/01 03:14:12;;;;;;;2.20;1.17;;;;;;;;;;5115742;28;20114;-75
2023/04/01 03:16:37;;;;;;;1.90;1.35;;;;;;;;;;5097234;28;20035;-77
2023/04/01 03:19:03;;;;;;;1.27;1.02;;;;;;;;;;5097647;28;20027;-77
2023/04/01 03:21:28;;;;;;;1.67;1.20;;;;;;;;;;5097399;28;20032;-77
2023/04/01 03:23:53;;;;;;;1.65;1.02;;;;;;;;;;5097442;28;20035;-77
2023/04/01 03:26:19;;;;;;;1.52;1.08;;;;;;;;;;5115776;28;20030;-77
2023/04/01 03:28:45;;;;;;;2.08;1.35;;;;;;;;;;5116170;28;20027;-76
2023/04/01 03:31:10;;;;;;;1.15;1.05;;;;;;;;;;5115969;28;20102;-77
2023/04/01 03:33:36;;;;;;;1.17;1.00;;;;;;;;;;5080883;28;20102;-78
2023/04/01 03:36:03;;;;;;;0.98;0.98;;;;;;;;;;5097098;28;20028;-77
2023/04/01 03:38:28;;;;;;;1.00;0.90;;;;;;;;;;5115353;28;20470;-77
2023/04/01 03:40:53;;;;;;;1.65;1.25;;;;;;;;;;5115547;28;20040;-77
2023/04/01 03:43:19;;;;;;;1.30;1.20;;;;;;;;;;5080254;28;20035;-76
2023/04/01 03:45:45;;;;;;;1.08;0.95;;;;;;;;;;5115536;28;20102;-77
2023/04/01 03:48:11;;;;;;;1.48;1.05;;;;;;;;;;5096704;28;20055;-77
2023/04/01 03:50:36;;;;;;;1.85;1.08;;;;;;;;;;5096794;28;20043;-77
2023/04/01 03:53:01;;;;;;;1.00;0.90;;;;;;;;;;5115274;28;20028;-77
2023/04/01 03:55:27;;;;;;;1.75;1.17;;;;;;;;;;5115037;28;20438;-77
2023/04/01 03:57:52;;;;;;;1.27;0.82;;;;;;;;;;5096764;28;20030;-77
2023/04/01 04:00:18;;;;;;;1.17;1.00;;;;;;;;;;5114776;28;20035;-77
2023/04/01 04:02:43;;;;;;;2.00;0.98;;;;;;;;;;5114469;28;20034;-75
2023/04/01 04:05:09;;;;;;;3.92;1.20;;;;;;;;;;5095759;28;20024;-77
2023/04/01 04:07:35;;;;;;;1.42;0.93;;;;;;;;;;5096680;28;20386;-77
2023/04/01 04:10:00;;;;;;;1.25;0.93;;;;;;;;;;5096975;28;20410;-77
2023/04/01 04:12:26;;;;;;;5.47;0.98;;;;;;;;;;5115184;28;20020;-76
2023/04/01 04:14:51;;;;;;;1.10;1.00;;;;;;;;;;5096120;28;20043;-75
2023/04/01 04:17:16;;;;;;;1.10;0.98;;;;;;;;;;5096457;28;20035;-76
2023/04/01 04:19:42;;;;;;;2.28;1.17;;;;;;;;;;5096094;28;20047;-76
2023/04/01 04:22:07;;;;;;;1.17;1.02;;;;;;;;;;5096181;28;20027;-76
2023/04/01 04:24:36;;;;;;;1.33;0.93;;;;;;;;;;5114445;28;20043;-76
2023/04/01 04:27:02;;;;;;;0.77;0.77;;;;;;;;;;5079321;28;20047;-76
2023/04/01 04:29:28;;;;;;;1.30;1.00;;;;;;;;;;5095859;28;20110;-76
2023/04/01 04:31:53;;;;;;;1.02;0.77;;;;;;;;;;5114229;28;20153;-76
2023/04/01 04:34:19;;;;;;;0.70;0.70;;;;;;;;;;5079290;28;20140;-76
2023/04/01 04:36:44;;;;;;;5.65;1.00;;;;;;;;;;5078718;28;20031;-76
2023/04/01 04:39:10;;;;;;;0.93;0.80;;;;;;;;;;5095714;28;20039;-76
2023/04/01 04:41:37;;;;;;;1.17;0.90;;;;;;;;;;5078900;28;20035;-76
2023/04/01 04:44:03;;;;;;;1.10;1.00;;;;;;;;;;5078899;28;20103;-77
2023/04/01 04:46:29;;;;;;;1.35;1.00;;;;;;;;;;5078814;28;20039;-77
2023/04/01 04:48:54;;;;;;;1.80;1.10;;;;;;;;;;5078375;28;20047;-77
2023/04/01 04:51:21;;;;;;;1.17;1.02;;;;;;;;;;5113934;28;20027;-77
2023/04/01 04:53:47;;;;;;;1.70;1.02;;;;;;;;;;5113804;28;20036;-77
2023/04/01 04:56:12;;;;;;;1.63;0.95;;;;;;;;;;5095397;28;20020;-75
2023/04/01 04:58:40;;;;;;;0.80;0.80;;;;;;;;;;5095172;28;20484;-77
2023/04/01 05:01:10;;;;;;;1.40;1.10;;;;;;;;;;5094987;28;20492;-77
2023/04/01 05:03:36;;;;;;;1.45;1.00;;;;;;;;;;5113332;28;20024;-77
2023/04/01 05:06:01;;;;;;;1.23;0.90;;;;;;;;;;5078402;28;20104;-77
2023/04/01 05:08:27;;;;;;;3.25;1.40;;;;;;;;;;5095278;28;20444;-78
2023/04/01 05:10:52;;;;;;;1.08;1.08;;;;;;;;;;5111297;28;20402;-78
2023/04/01 05:13:17;;;;;;;1.23;1.10;;;;;;;;;;5109665;28;20032;-78
2023/04/01 05:15:43;;;;;;;1.20;1.10;;;;;;;;;;5073335;28;20115;-78
2023/04/01 05:18:08;;;;;;;1.70;1.13;;;;;;;;;;5109172;28;20022;-77
2023/04/01 05:20:34;;;;;;;2.78;1.20;;;;;;;;;;5089610;28;20031;-78
2023/04/01 05:22:59;;;;;;;2.65;1.30;;;;;;;;;;5073674;28;20031;-77
2023/04/01 05:25:25;;;;;;;1.77;1.27;;;;;;;;;;5078726;28;20027;-77
2023/04/01 05:27:51;;;;;;;1.40;1.30;;;;;;;;;;5114431;28;20062;-77
2023/04/01 05:30:16;;;;;;;1.63;1.33;;;;;;;;;;5113729;28;20024;-77
2023/04/01 05:32:43;;;;;;;2.28;1.33;;;;;;;;;;5078993;28;20403;-77
2023/04/01 05:35:09;;;;;;;3.03;1.58;;;;;;;;;;5078011;28;20038;-77
2023/04/01 05:37:35;;;;;;;2.05;1.30;;;;;;;;;;5113383;28;20394;-78
2023/04/01 05:40:00;;;;;;;2.60;1.20;;;;;;;;;;5094588;28;20035;-78
2023/04/01 05:42:25;;;;;;;1.70;1.23;;;;;;;;;;5113821;28;20023;-77
2023/04/01 05:44:51;;;;;;;1.88;1.13;;;;;;;;;;5113439;28;20020;-78
2023/04/01 05:47:16;;;;;;;1.65;1.33;;;;;;;;;;5089765;28;20177;-78
2023/04/01 05:49:41;;;;;;;1.73;1.60;;;;;;;;;;5074357;28;20132;-78
2023/04/01 05:52:07;;;;;;;1.38;1.27;;;;;;;;;;5092436;28;20028;-78
2023/04/01 05:54:33;;;;;;;2.40;1.30;;;;;;;;;;5074187;28;20081;-78
2023/04/01 05:56:58;;;;;;;2.72;1.50;;;;;;;;;;5089559;28;20040;-78
2023/04/01 05:59:24;;;;;;;1.95;1.40;;;;;;;;;;5054718;28;20592;-78
2023/04/01 06:01:49;;;;;;;1.92;1.40;;;;;;;;;;5071805;28;20102;-77
2023/04/01 06:04:16;;;;;;;1.52;1.40;;;;;;;;;;5072175;28;20390;-77
2023/04/01 06:06:42;;;;;;;3.45;1.40;;;;;;;;;;5057216;28;20025;-77
2023/04/01 06:09:14;;;;;;;2.00;1.30;;;;;;;;;;5071410;28;20097;-76
2023/04/01 06:11:53;;;;;;;4.07;1.77;;;;;;;;;;5071132;28;20085;-75
2023/04/01 06:14:28;;;;;;;3.90;1.88;;;;;;;;;;5070484;28;20085;-77
2023/04/01 06:17:17;;;;;;;4.20;1.83;;;;;;;;;;5053556;28;20106;-77
2023/04/01 06:20:13;;;;;;;2.42;1.90;;;;;;;;;;5069652;28;20510;-78
2023/04/01 06:22:43;;;;;;;4.00;1.65;;;;;;;;;;5087966;28;20020;-77
2023/04/01 06:25:17;;;;;;;4.53;1.88;;;;;;;;;;5069565;28;20449;-77
2023/04/01 06:27:49;;;;;;;5.05;2.10;;;;;;;;;;5070971;28;20110;-78
2023/04/01 06:30:35;;;;;;;3.25;1.75;;;;;;;;;;5076639;28;20019;-77
2023/04/01 06:33:29;;;;;;;2.85;1.70;;;;;;;;;;5077235;28;20344;-77
2023/04/01 06:36:01;;;;;;;4.45;1.92;;;;;;;;;;5077448;28;20036;-78
2023/04/01 06:38:41;;;;;;;2.40;1.48;;;;;;;;;;5077389;28;20092;-77
2023/04/01 06:41:15;;;;;;;2.58;1.40;;;;;;;;;;5077014;28;20034;-77
2023/04/01 06:43:44;;;;;;;;;;;;;;;;;;5076598;28;20039;-76
2023/04/01 06:46:20;;;;;;;4.40;2.20;;;;;;;;;;5076380;28;19969;-78
2023/04/01 06:49:06;;;;;;;1.58;1.33;;;;;;;;;;5076518;28;20047;-78
2023/04/01 06:51:46;;;;;;;2.53;1.70;;;;;;;;;;5096982;28;20419;-77
2023/04/01 06:54:18;;;;;;;2.63;1.30;;;;;;;;;;5079646;28;20065;-78
2023/04/01 06:56:46;;;;;;;3.72;1.40;;;;;;;;;;5096835;28;20062;-77
2023/04/01 06:59:21;;;;;;;2.50;1.42;;;;;;;;;;5079680;28;20115;-78
2023/04/01 07:02:09;;;;;;;3.72;2.00;;;;;;;;;;5079301;28;20080;-77
2023/04/01 07:04:41;;;;;;;1.88;1.40;;;;;;;;;;5114287;28;20023;-76
2023/04/01 07:07:24;;;;;;;3.85;1.08;;;;;;;;;;5079200;28;20033;-77
2023/04/01 07:09:52;;;;;;;2.42;1.50;;;;;;;;;;5079049;28;20110;-78
2023/04/01 07:12:22;;;;;;;2.22;1.52;;;;;;;;;;5079131;28;20035;-77
2023/04/01 07:14:49;;;;;;;1.63;1.17;;;;;;;;;;5096101;28;20030;-76
2023/04/01 07:17:21;;;;;;;2.85;1.25;;;;;;;;;;5096082;28;20461;-76
2023/04/01 07:19:51;;;;;;;3.35;1.40;;;;;;;;;;5096292;28;20048;-77
2023/04/01 07:22:28;;;;;;;2.17;1.30;;;;;;;;;;5079803;28;20023;-78
2023/04/01 07:24:54;;;;;;;3.53;1.00;;;;;;;;;;5079599;28;20015;-78
2023/04/01 07:27:19;;;;;;;1.27;1.00;;;;;;;;;;5095922;28;20035;-76
2023/04/01 07:29:45;;;;;;;5.32;1.10;;;;;;;;;;5095619;28;20389;-76
2023/04/01 07:32:29;;;;;;;2.00;1.10;;;;;;;;;;5078760;28;20072;-77
2023/04/01 07:35:07;;;;;;;5.80;0.90;;;;;;;;;;5113846;28;20028;-77
2023/04/01 07:37:42;;;;;;;1.00;0.80;;;;;;;;;;5113604;28;20034;-77
2023/04/01 07:40:10;;;;;;;1.85;0.80;;;;;;;;;;5078212;28;20024;-76
2023/04/01 07:42:36;;;;;;;1.35;0.68;;;;;;;;;;5113696;28;20135;-77
2023/04/01 07:45:23;;;;;;;2.63;0.90;;;;;;;;;;5113734;28;20042;-78
2023/04/01 07:48:07;;;;;;;1.50;0.65;;;;;;;;;;5113385;28;20048;-79
2023/04/01 07:50:51;;;;;;;0.80;0.77;;;;;;;;;;5095582;28;20043;-78
2023/04/01 07:53:23;;;;;;;3.67;1.23;;;;;;;;;;5095703;28;20028;-78
2023/04/01 07:55:58;;;;;;;17.48;3.92;;;;;;;;;;5095512;28;20024;-79
2023/04/01 07:58:38;;;;;;;15.23;4.35;;;;;;;;;;5095387;28;20092;-80
2023/04/01 08:01:13;;;;;;;13.30;3.88;;;;;;;;;;5114198;28;20045;-80
2023/04/01 08:04:03;;;;;;;12.68;3.22;;;;;;;;;;5095411;28;20032;-79
2023/04/01 08:06:44;;;;;;;20.85;4.43;;;;;;;;;;5095536;28;20028;-79
2023/04/01 08:09:25;;;;;;;17.42;3.75;;;;;;;;;;5095611;28;20020;-79
2023/04/01 08:11:58;;;;;;;12.68;4.00;;;;;;;;;;5095877;28;20042;-79
2023/04/01 08:14:37;;;;;;;14.57;3.92;;;;;;;;;;5095651;28;20542;-79
2023/04/01 08:17:06;;;;;;;16.17;3.80;;;;;;;;;;5113492;28;20027;-79
2023/04/01 08:19:48;;;;;;;12.40;3.30;;;;;;;;;;5079081;28;20034;-80
2023/04/01 08:22:26;;;;;;;10.27;3.75;;;;;;;;;;5095849;28;20409;-79
2023/04/01 08:24:57;;;;;;;10.73;3.50;;;;;;;;;;5095219;28;20016;-80
2023/04/01 08:27:28;;;;;;;13.18;3.40;;;;;;;;;;5113886;28;20036;-80
2023/04/01 08:30:22;;;;;;;12.52;2.58;;;;;;;;;;5095128;28;20035;-79
2023/04/01 08:33:00;;;;;;;7.20;2.63;;;;;;;;;;5113907;28;20093;-81
2023/04/01 08:35:31;;;;;;;13.65;3.33;;;;;;;;;;5096293;28;20049;-81
2023/04/01 08:38:01;;;;;;;7.18;2.80;;;;;;;;;;5096132;28;20019;-80
2023/04/01 08:41:01;;;;;;;9.98;2.90;;;;;;;;;;5095773;28;20125;-77
2023/04/01 08:43:32;;;;;;;12.18;2.97;;;;;;;;;;5079056;28;20024;-78
2023/04/01 08:46:07;;;;;;;7.07;2.35;;;;;;;;;;5095871;28;20019;-82
2023/04/01 08:48:44;;;;;;;5.80;2.28;;;;;;;;;;5113673;28;20070;-81
2023/04/01 08:51:41;;;;;;;6.30;1.95;;;;;;;;;;5095131;28;20055;-81
2023/04/01 08:54:37;;;;;;;4.95;1.88;;;;;;;;;;5095159;28;20027;-80
2023/04/01 08:57:20;;;;;;;6.93;2.25;;;;;;;;;;5095180;28;20020;-78
2023/04/01 09:00:13;;;;;;;5.18;1.80;;;;;;;;;;5078323;28;20095;-78
2023/04/01 09:03:10;;;;;;;6.22;1.77;;;;;;;;;;5095382;28;20023;-79
2023/04/01 09:05:41;;;;;;;4.22;1.58;;;;;;;;;;5065863;28;20032;-78
2023/04/01 09:08:32;;;;;;;13.95;2.08;;;;;;;;;;5094843;28;20023;-78
2023/04/01 09:11:05;;;;;;;3.70;1.73;;;;;;;;;;5113688;28;20110;-78
2023/04/01 09:13:52;;;;;;;3.80;2.00;;;;;;;;;;5078132;28;20035;-79
2023/04/01 09:16:39;;;;;;;5.00;1.70;;;;;;;;;;5095268;28;20053;-78
2023/04/01 09:19:39;;;;;;;2.03;1.40;;;;;;;;;;5095103;28;20023;-78
2023/04/01 09:22:20;;;;;;;4.55;1.73;;;;;;;;;;5078957;28;20055;-78
2023/04/01 09:25:04;;;;;;;4.55;1.60;;;;;;;;;;5096399;28;20107;-77
2023/04/01 09:28:07;;;;;;;2.38;1.33;;;;;;;;;;5095542;28;20398;-78
2023/04/01 09:31:00;;;;;;;2.90;1.40;;;;;;;;;;5113105;28;20035;-78
2023/04/01 09:33:53;;;;;;;2.53;1.23;;;;;;;;;;5094197;28;20036;-78
2023/04/01 09:36:30;;;;;;;2.65;1.20;;;;;;;;;;5112757;28;20032;-76
2023/04/01 09:39:13;;;;;;;7.22;2.00;;;;;;;;;;5094504;28;20024;-76
2023/04/01 09:42:11;;;;;;;3.22;1.52;;;;;;;;;;5113264;28;20066;-76
2023/04/01 09:44:43;;;;;;;3.45;1.48;;;;;;;;;;5113128;28;20036;-77
2023/04/01 09:47:26;;;;;;;3.25;1.38;;;;;;;;;;5094573;28;20048;-78
2023/04/01 09:50:07;;;;;;;2.95;1.25;;;;;;;;;;5077975;28;20039;-78
2023/04/01 09:52:47;;;;;;;1.63;1.30;;;;;;;;;;5112271;28;20347;-78
2023/04/01 09:55:21;;;;;;;10.15;2.58;;;;;;;;;;5077709;28;20184;-78
2023/04/01 09:58:10;;;;;;;4.00;1.90;;;;;;;;;;5094535;28;20116;-81
2023/04/01 10:00:53;;;;;;;4.13;2.22;;;;;;;;;;5094006;28;20031;-79
2023/04/01 10:03:19;;;;;;;6.68;2.40;;;;;;;;;;5097116;28;20110;-78
2023/04/01 10:06:35;;;;;;;10.45;3.85;;;;;;;;;;5115752;28;20052;-79
2023/04/01 10:09:24;;;;;;;11.95;2.65;;;;;;;;;;5072591;28;20042;-79
2023/04/01 10:12:07;;;;;;;9.57;2.88;;;;;;;;;;5115861;28;20039;-79
2023/04/01 10:14:57;;;;;;;11.77;2.40;;;;;;;;;;5097052;28;20038;-79
2023/04/01 10:17:37;;;;;;;9.98;3.22;;;;;;;;;;5080303;28;20032;-79
2023/04/01 10:20:33;;;;;;;7.05;2.65;;;;;;;;;;5097450;28;20122;-78
2023/04/01 10:23:05;;;;;;;10.43;3.15;;;;;;;;;;5097322;28;20024;-76
2023/04/01 10:25:57;;;;;;;6.18;2.55;;;;;;;;;;5116387;28;20044;-79
2023/04/01 10:28:47;;;;;;;9.10;2.78;;;;;;;;;;5116435;28;20117;-78
2023/04/01 10:31:30;;;;;;;4.22;2.03;;;;;;;;;;5116691;28;20035;-78
2023/04/01 10:34:43;;;;;;;7.38;2.15;;;;;;;;;;5116622;28;20016;-79
2023/04/01 10:37:46;;;;;;;15.23;2.78;;;;;;;;;;5013938;28;20045;-79
2023/04/01 10:40:30;;;;;;;9.35;2.67;;;;;;;;;;5013794;28;20088;-80
2023/04/01 10:43:22;;;;;;;4.95;2.20;;;;;;;;;;5015133;28;20118;-77
2023/04/01 10:46:24;;;;;;;7.15;2.30;;;;;;;;;;4981558;28;20049;-77
2023/04/01 10:49:05;;;;;;;7.55;2.40;;;;;;;;;;4996698;28;20405;-76
2023/04/01 10:52:01;;;;;;;10.35;2.80;;;;;;;;;;5013623;28;20026;-76
2023/04/01 10:54:56;;;;;;;6.25;2.15;;;;;;;;;;5013251;28;20029;-78
2023/04/01 10:57:37;;;;;;;8.57;2.65;;;;;;;;;;4996877;28;20040;-77
2023/04/01 11:00:27;;;;;;;5.78;2.75;;;;;;;;;;5013094;28;20113;-77
2023/04/01 11:03:04;;;;;;;5.93;2.55;;;;;;;;;;5013072;28;20030;-76
2023/04/01 11:05:52;;;;;;;6.93;2.60;;;;;;;;;;5012986;28;20021;-76
2023/04/01 11:08:29;;;;;;;4.43;2.10;;;;;;;;;;5086260;28;20031;-77
2023/04/01 11:11:17;;;;;;;7.63;2.50;;;;;;;;;;5116432;28;20028;-77
2023/04/01 11:13:57;;;;;;;3.47;2.13;;;;;;;;;;5098445;28;20382;-78
2023/04/01 11:16:59;;;;;;;3.25;1.92;;;;;;;;;;5098162;28;20489;-78
2023/04/01 11:19:45;;;;;;;3.00;1.73;;;;;;;;;;5098099;28;20016;-78
2023/04/01 11:22:25;;;;;;;3.63;1.90;;;;;;;;;;5098040;28;20020;-77
2023/04/01 11:24:51;;;;;;;8.60;1.92;;;;;;;;;;5098113;28;20089;-79
2023/04/01 11:27:54;;;;;;;7.85;1.85;;;;;;;;;;5097382;28;20470;-79
2023/04/01 11:30:33;;;;;;;1.92;1.48;;;;;;;;;;5091995;28;20158;-79
2023/04/01 11:33:16;;;;;;;2.88;1.35;;;;;;;;;;5092160;28;20024;-79
2023/04/01 11:35:48;;;;;;;1.95;1.35;;;;;;;;;;5092506;28;20087;-80
2023/04/01 11:38:19;;;;;;;5.13;1.70;;;;;;;;;;5111440;28;20083;-81
2023/04/01 11:41:07;;;;;;;3.58;1.58;;;;;;;;;;5091936;28;20355;-80
2023/04/01 11:44:11;;;;;;;2.20;1.40;;;;;;;;;;5091111;28;20031;-80
2023/04/01 11:46:42;;;;;;;2.72;1.42;;;;;;;;;;5091342;28;20106;-80
2023/04/01 11:49:33;;;;;;;1.95;1.48;;;;;;;;;;5109478;28;20367;-80
2023/04/01 11:52:13;;;;;;;3.85;1.63;;;;;;;;;;5074592;28;20455;-80
2023/04/01 11:54:51;;;;;;;4.78;1.60;;;;;;;;;;5109809;28;20080;-80
2023/04/01 11:57:42;;;;;;;2.08;1.30;;;;;;;;;;5091350;28;20028;-79
2023/04/01 12:00:45;;;;;;;2.22;1.60;;;;;;;;;;5092785;28;20011;-78
2023/04/01 12:03:31;;;;;;;2.78;1.55;;;;;;;;;;5094787;28;20062;-78
2023/04/01 12:06:15;;;;;;;8.68;2.20;;;;;;;;;;5095377;28;20458;-80
2023/04/01 12:09:32;;;;;;;4.22;1.58;;;;;;;;;;5100520;28;20023;-78
2023/04/01 12:12:17;;;;;;;3.03;1.80;;;;;;;;;;5071371;28;20179;-77
2023/04/01 12:15:01;;;;;;;3.47;1.27;;;;;;;;;;5095980;28;20020;-78
2023/04/01 12:17:57;;;;;;;3.28;1.50;;;;;;;;;;5114467;28;20023;-78
2023/04/01 12:20:43;;;;;;;2.72;1.60;;;;;;;;;;5078137;28;20055;-78
2023/04/01 12:24:03;;;;;;;4.20;1.70;;;;;;;;;;5113413;28;20032;-80
2023/04/01 12:26:47;;;;;;;1.98;1.42;;;;;;;;;;5008717;28;20037;-80
2023/04/01 12:29:15;;;;;;;3.78;1.27;;;;;;;;;;4993140;28;20425;-79
2023/04/01 12:32:01;;;;;;;3.50;1.45;;;;;;;;;;5082479;28;20035;-79
2023/04/01 12:34:57;;;;;;;2.97;1.35;;;;;;;;;;5094822;28;20060;-80
2023/04/01 12:37:47;;;;;;;2.65;1.67;;;;;;;;;;5094504;28;20020;-79
2023/04/01 12:40:46;;;;;;;3.60;1.30;;;;;;;;;;5110364;28;20118;-77
2023/04/01 12:43:37;;;;;;;2.47;1.30;;;;;;;;;;5053937;28;20058;-79
2023/04/01 12:46:20;;;;;;;2.00;1.30;;;;;;;;;;5090364;28;20073;-79
2023/04/01 12:48:58;;;;;;;1.73;1.17;;;;;;;;;;5110461;28;20291;-78
2023/04/01 12:51:56;;;;;;;1.80;1.35;;;;;;;;;;5074845;28;20027;-79
2023/04/01 12:54:42;;;;;;;2.53;1.20;;;;;;;;;;5053870;28;20043;-78
2023/04/01 12:57:39;;;;;;;2.40;1.25;;;;;;;;;;5090835;28;20234;-78
2023/04/01 13:00:16;;;;;;;2.80;1.17;;;;;;;;;;5109760;28;20035;-79
2023/04/01 13:03:07;;;;;;;3.25;1.20;;;;;;;;;;5093177;28;20137;-78
2023/04/01 13:05:47;;;;;;;1.55;1.17;;;;;;;;;;5093264;28;20019;-79
2023/04/01 13:08:24;;;;;;;2.38;1.33;;;;;;;;;;5091494;28;20096;-78
2023/04/01 13:11:21;;;;;;;4.95;1.77;;;;;;;;;;5110406;28;20038;-78
2023/04/01 13:14:06;;;;;;;4.13;1.90;;;;;;;;;;5091970;28;20034;-81
2023/04/01 13:16:38;;;;;;;5.50;2.20;;;;;;;;;;5091553;28;20130;-80
2023/04/01 13:19:09;;;;;;;6.05;2.67;;;;;;;;;;5109942;28;20028;-80
2023/04/01 13:22:17;;;;;;;6.80;2.50;;;;;;;;;;5091664;28;20349;-80
2023/04/01 13:24:51;;;;;;;10.02;2.70;;;;;;;;;;5110087;28;20031;-81
2023/04/01 13:27:19;;;;;;;7.60;2.35;;;;;;;;;;5092772;28;20034;-80
2023/04/01 13:30:10;;;;;;;6.20;2.13;;;;;;;;;;5110341;28;20046;-79
2023/04/01 13:33:00;;;;;;;5.95;2.53;;;;;;;;;;5092528;28;20358;-80
2023/04/01 13:35:37;;;;;;;9.38;2.53;;;;;;;;;;5108913;28;20088;-80
2023/04/01 13:38:29;;;;;;;10.48;3.00;;;;;;;;;;5094420;28;20019;-79
2023/04/01 13:40:57;;;;;;;10.00;2.80;;;;;;;;;;5079760;28;20066;-79
2023/04/01 13:43:28;;;;;;;8.55;2.92;;;;;;;;;;5096845;28;20484;-80
2023/04/01 13:46:16;;;;;;;7.35;2.50;;;;;;;;;;5099426;28;20385;-80
2023/04/01 13:48:53;;;;;;;7.63;2.67;;;;;;;;;;5095428;28;20039;-79
2023/04/01 13:51:37;;;;;;;6.75;2.38;;;;;;;;;;5100562;28;20049;-79
2023/04/01 13:54:06;;;;;;;5.07;2.25;;;;;;;;;;5117169;28;20430;-79
2023/04/01 13:56:34;;;;;;;5.70;2.50;;;;;;;;;;5117580;28;20075;-79
2023/04/01 13:59:26;;;;;;;7.30;3.03;;;;;;;;;;5117091;28;20027;-78
2023/04/01 14:02:19;;;;;;;6.05;2.63;;;;;;;;;;5068732;28;20035;-77
2023/04/01 14:05:04;;;;;;;8.23;2.90;;;;;;;;;;5098409;28;20115;-78
2023/04/01 14:07:45;;;;;;;6.20;2.50;;;;;;;;;;5099273;28;20059;-78
2023/04/01 14:10:40;;;;;;;4.80;2.30;;;;;;;;;;5117965;28;20141;-78
2023/04/01 14:13:07;;;;;;;3.53;2.00;;;;;;;;;;5058092;28;20050;-76
2023/04/01 14:15:45;;;;;;;6.75;2.05;;;;;;;;;;5098492;28;20028;-77
2023/04/01 14:18:49;;;;;;;5.07;2.20;;;;;;;;;;5098445;28;20034;-78
2023/04/01 14:21:41;;;;;;;7.10;2.10;;;;;;;;;;5026910;28;20197;-79
2023/04/01 14:24:31;;;;;;;3.08;1.90;;;;;;;;;;5098498;28;20364;-79
2023/04/01 14:27:08;;;;;;;4.65;2.20;;;;;;;;;;5097972;28;20027;-77
2023/04/01 14:29:53;;;;;;;3.17;1.75;;;;;;;;;;5116454;28;20034;-78
2023/04/01 14:32:24;;;;;;;;;;;;;;;;;;5098100;28;20406;-78
2023/04/01 14:35:00;;;;;;;3.72;1.92;;;;;;;;;;5097843;28;19907;-78
2023/04/01 14:37:40;;;;;;;2.70;1.63;;;;;;;;;;5098009;28;20034;-78
2023/04/01 14:40:12;;;;;;;2.53;1.70;;;;;;;;;;5098224;28;20027;-78
2023/04/01 14:43:14;;;;;;;2.17;1.60;;;;;;;;;;5116386;28;20454;-78
2023/04/01 14:45:52;;;;;;;3.03;1.70;;;;;;;;;;5116716;28;20027;-77
2023/04/01 14:48:41;;;;;;;3.65;1.80;;;;;;;;;;5097471;28;20088;-78
2023/04/01 14:51:13;;;;;;;2.25;1.65;;;;;;;;;;5116555;28;20113;-77
2023/04/01 14:54:04;;;;;;;2.47;1.63;;;;;;;;;;5080840;28;20473;-78
2023/04/01 14:56:44;;;;;;;4.80;1.77;;;;;;;;;;5088273;28;20038;-78
2023/04/01 14:59:32;;;;;;;2.10;1.40;;;;;;;;;;5080749;28;20027;-78
2023/04/01 15:02:09;;;;;;;1.85;1.50;;;;;;;;;;5115740;28;20039;-79
2023/04/01 15:04:50;;;;;;;4.05;1.42;;;;;;;;;;5097013;28;20019;-78
2023/04/01 15:07:18;;;;;;;2.47;1.50;;;;;;;;;;5097202;28;20489;-79
2023/04/01 15:10:02;;;;;;;2.30;1.48;;;;;;;;;;5116287;28;20036;-78
2023/04/01 15:12:30;;;;;;;;;;;;;;;;;;5099213;28;20038;-78
2023/04/01 15:15:10;;;;;;;2.85;1.30;;;;;;;;;;5098256;28;19939;-78
2023/04/01 15:17:52;;;;;;;2.03;1.50;;;;;;;;;;5098527;28;20020;-78
2023/04/01 15:20:43;;;;;;;1.30;1.20;;;;;;;;;;5098064;28;20027;-79
2023/04/01 15:23:39;;;;;;;3.28;1.25;;;;;;;;;;5113209;28;20031;-77
2023/04/01 15:26:07;;;;;;;2.95;1.77;;;;;;;;;;5067371;28;20031;-78
2023/04/01 15:28:36;;;;;;;2.75;1.40;;;;;;;;;;5114744;28;20035;-78
2023/04/01 15:31:02;;;;;;;0.98;0.98;;;;;;;;;;5095774;28;20019;-78
2023/04/01 15:33:48;;;;;;;1.98;1.35;;;;;;;;;;5114566;28;20041;-78
2023/04/01 15:36:52;;;;;;;2.00;1.10;;;;;;;;;;5079881;28;20034;-78
2023/04/01 15:39:28;;;;;;;2.28;1.42;;;;;;;;;;5096928;28;20023;-78